createdAt,value
2018-05-21T00:00:42.916Z,14.83
2018-05-21T00:03:11.495Z,14.80
2018-05-21T00:05:39.908Z,14.74
2018-05-21T00:08:08.286Z,14.61
2018-05-21T00:10:36.678Z,14.63
2018-05-21T00:13:05.076Z,14.52
2018-05-21T00:15:33.478Z,14.48
2018-05-21T00:18:01.865Z,14.49
2018-05-21T00:20:30.246Z,14.38
2018-05-21T00:22:58.867Z,14.32
2018-05-21T00:25:27.236Z,14.19
2018-05-21T00:27:57.112Z,14.17
2018-05-21T00:30:25.508Z,14.08
2018-05-21T00:32:53.895Z,13.99
2018-05-21T00:35:22.284Z,13.99
2018-05-21T00:37:50.791Z,14.05
2018-05-21T00:40:19.164Z,14.05
2018-05-21T00:42:47.759Z,14.06
2018-05-21T00:45:16.220Z,13.94
2018-05-21T00:47:44.615Z,14.03
2018-05-21T00:50:13.119Z,13.99
2018-05-21T00:52:41.512Z,14.06
2018-05-21T00:55:21.647Z,13.99
2018-05-21T00:57:50.053Z,14.11
2018-05-21T01:00:18.779Z,14.09
2018-05-21T01:02:47.182Z,14.05
2018-05-21T01:05:15.971Z,14.07
2018-05-21T01:07:44.371Z,14.04
2018-05-21T01:10:12.756Z,14.04
2018-05-21T01:12:41.316Z,14.13
2018-05-21T01:15:09.699Z,14.12
2018-05-21T01:17:38.332Z,14.17
2018-05-21T01:20:06.711Z,14.21
2018-05-21T01:22:35.116Z,14.13
2018-05-21T01:25:03.627Z,14.13
2018-05-21T01:27:32.016Z,14.10
2018-05-21T01:30:00.400Z,14.09
2018-05-21T01:32:28.790Z,14.10
2018-05-21T01:34:57.813Z,14.13
2018-05-21T01:37:26.201Z,14.12
2018-05-21T01:39:54.576Z,14.10
2018-05-21T01:42:23.191Z,14.18
2018-05-21T01:44:51.571Z,14.15
2018-05-21T01:47:19.960Z,14.13
2018-05-21T01:49:48.531Z,14.11
2018-05-21T01:52:16.920Z,14.11
2018-05-21T01:54:45.320Z,14.10
2018-05-21T01:57:13.687Z,14.07
2018-05-21T01:59:42.079Z,14.11
2018-05-21T02:02:10.791Z,14.13
2018-05-21T02:04:39.187Z,14.04
2018-05-21T02:07:08.051Z,13.94
2018-05-21T02:09:36.428Z,14.03
2018-05-21T02:12:04.807Z,13.94
2018-05-21T02:14:33.363Z,13.93
2018-05-21T02:17:01.745Z,13.96
2018-05-21T02:19:30.147Z,13.99
2018-05-21T02:21:58.531Z,13.94
2018-05-21T02:24:26.931Z,13.87
2018-05-21T02:26:55.311Z,13.97
2018-05-21T02:29:23.743Z,13.96
2018-05-21T02:31:52.123Z,13.92
2018-05-21T02:34:20.515Z,13.93
2018-05-21T02:36:48.903Z,13.91
2018-05-21T02:39:17.658Z,13.85
2018-05-21T02:41:46.400Z,13.86
2018-05-21T02:44:14.786Z,13.88
2018-05-21T02:46:43.176Z,13.81
2018-05-21T02:49:11.571Z,13.81
2018-05-21T02:51:40.155Z,13.79
2018-05-21T02:54:08.555Z,13.79
2018-05-21T02:56:36.931Z,13.74
2018-05-21T02:59:05.526Z,13.73
2018-05-21T03:01:33.908Z,13.86
2018-05-21T03:04:02.427Z,13.70
2018-05-21T03:06:31.424Z,13.63
2018-05-21T03:08:59.823Z,13.54
2018-05-21T03:11:28.198Z,13.44
2018-05-21T03:13:56.880Z,13.46
2018-05-21T03:16:25.387Z,13.38
2018-05-21T03:18:54.296Z,13.37
2018-05-21T03:21:23.406Z,13.30
2018-05-21T03:23:51.783Z,13.23
2018-05-21T03:26:20.184Z,13.17
2018-05-21T03:28:48.779Z,13.09
2018-05-21T03:31:17.179Z,13.13
2018-05-21T03:33:45.546Z,12.99
2018-05-21T03:36:14.159Z,12.92
2018-05-21T03:38:42.540Z,12.96
2018-05-21T03:41:11.420Z,12.96
2018-05-21T03:43:39.788Z,13.01
2018-05-21T03:46:08.188Z,12.96
2018-05-21T03:48:36.567Z,12.89
2018-05-21T03:51:04.960Z,12.89
2018-05-21T03:53:33.348Z,12.87
2018-05-21T03:56:01.963Z,12.82
2018-05-21T03:58:42.055Z,12.81
2018-05-21T04:04:15.936Z,12.68
2018-05-21T04:06:44.343Z,12.60
2018-05-21T04:09:12.707Z,12.47
2018-05-21T04:11:41.155Z,12.47
2018-05-21T04:14:09.532Z,12.46
2018-05-21T04:16:38.134Z,12.44
2018-05-21T04:19:06.936Z,12.36
2018-05-21T04:21:35.443Z,12.32
2018-05-21T04:24:04.037Z,12.29
2018-05-21T04:26:32.438Z,12.32
2018-05-21T04:29:00.815Z,12.28
2018-05-21T04:31:29.206Z,12.28
2018-05-21T04:33:57.583Z,12.34
2018-05-21T04:36:26.277Z,12.40
2018-05-21T04:38:54.816Z,12.47
2018-05-21T04:41:23.447Z,12.40
2018-05-21T04:43:51.932Z,12.55
2018-05-21T04:46:20.363Z,12.59
2018-05-21T04:48:48.747Z,12.69
2018-05-21T04:51:17.348Z,12.83
2018-05-21T04:53:45.749Z,12.89
2018-05-21T04:56:14.320Z,12.99
2018-05-21T04:58:42.720Z,13.16
2018-05-21T05:01:11.104Z,13.26
2018-05-21T05:03:40.060Z,13.36
2018-05-21T05:06:08.427Z,13.38
2018-05-21T05:08:36.831Z,13.44
2018-05-21T05:11:05.207Z,13.53
2018-05-21T05:13:33.624Z,13.66
2018-05-21T05:16:02.130Z,13.67
2018-05-21T05:18:30.680Z,13.84
2018-05-21T05:20:59.082Z,13.76
2018-05-21T05:23:27.464Z,13.85
2018-05-21T05:25:56.054Z,13.97
2018-05-21T05:28:24.455Z,13.95
2018-05-21T05:30:52.828Z,14.07
2018-05-21T05:33:21.567Z,14.13
2018-05-21T05:35:49.943Z,14.16
2018-05-21T05:38:18.352Z,14.26
2018-05-21T05:40:46.830Z,14.44
2018-05-21T05:43:15.477Z,14.44
2018-05-21T05:45:43.852Z,14.75
2018-05-21T05:48:12.456Z,15.05
2018-05-21T05:50:40.839Z,15.36
2018-05-21T05:53:09.239Z,16.21
2018-05-21T05:55:37.623Z,16.73
2018-05-21T05:58:06.396Z,17.59
2018-05-21T06:00:34.771Z,18.45
2018-05-21T06:03:03.414Z,18.40
2018-05-21T06:05:31.794Z,18.87
2018-05-21T06:08:00.578Z,19.12
2018-05-21T06:10:28.975Z,19.05
2018-05-21T06:12:57.348Z,19.81
2018-05-21T06:15:25.739Z,20.21
2018-05-21T06:17:54.233Z,20.61
2018-05-21T06:20:22.620Z,20.30
2018-05-21T06:22:50.995Z,21.25
2018-05-21T06:25:19.626Z,21.18
2018-05-21T06:27:48.438Z,21.30
2018-05-21T06:30:16.836Z,22.05
2018-05-21T06:32:45.217Z,21.36
2018-05-21T06:35:13.614Z,21.85
2018-05-21T06:37:42.075Z,22.29
2018-05-21T06:40:11.087Z,22.95
2018-05-21T06:42:39.571Z,23.09
2018-05-21T06:45:08.487Z,22.97
2018-05-21T06:47:36.928Z,23.39
2018-05-21T06:50:05.266Z,22.44
2018-05-21T06:52:34.003Z,22.88
2018-05-21T06:55:02.384Z,23.07
2018-05-21T06:57:30.790Z,23.00
2018-05-21T06:59:59.194Z,24.11
2018-05-21T07:02:27.863Z,24.54
2018-05-21T07:04:56.271Z,24.96
2018-05-21T07:07:24.879Z,25.10
2018-05-21T07:09:53.278Z,24.85
2018-05-21T07:12:21.651Z,26.31
2018-05-21T07:14:50.068Z,26.84
2018-05-21T07:17:19.383Z,25.79
2018-05-21T07:19:47.779Z,26.89
2018-05-21T07:22:16.155Z,26.91
2018-05-21T07:24:44.758Z,26.44
2018-05-21T07:27:13.699Z,27.45
2018-05-21T07:29:42.150Z,26.89
2018-05-21T07:32:10.484Z,25.17
2018-05-21T07:34:39.086Z,25.45
2018-05-21T07:37:07.499Z,25.95
2018-05-21T07:39:35.868Z,27.48
2018-05-21T07:42:04.271Z,28.28
2018-05-21T07:44:32.911Z,28.60
2018-05-21T07:47:01.289Z,28.70
2018-05-21T07:49:29.728Z,28.48
2018-05-21T07:51:58.776Z,27.86
2018-05-21T07:54:27.170Z,28.32
2018-05-21T07:56:55.564Z,28.16
2018-05-21T07:59:23.947Z,29.11
2018-05-21T08:01:52.689Z,30.26
2018-05-21T08:04:21.072Z,30.42
2018-05-21T08:06:49.471Z,29.26
2018-05-21T08:09:18.140Z,29.00
2018-05-21T08:11:46.556Z,29.30
2018-05-21T08:14:14.936Z,28.13
2018-05-21T08:16:43.416Z,28.03
2018-05-21T08:19:11.851Z,28.76
2018-05-21T08:21:40.251Z,27.76
2018-05-21T08:24:08.844Z,27.75
2018-05-21T08:26:37.244Z,26.93
2018-05-21T08:29:05.620Z,28.13
2018-05-21T08:31:35.014Z,26.55
2018-05-21T08:36:32.734Z,25.94
2018-05-21T08:39:01.115Z,28.09
2018-05-21T08:41:30.480Z,28.89
2018-05-21T08:43:58.863Z,29.40
2018-05-21T08:46:27.247Z,29.88
2018-05-21T08:48:55.699Z,28.52
2018-05-21T08:51:24.364Z,27.83
2018-05-21T08:53:52.770Z,29.21
2018-05-21T08:56:21.156Z,29.07
2018-05-21T08:58:49.592Z,28.15
2018-05-21T09:01:17.948Z,27.87
2018-05-21T09:03:46.343Z,30.33
2018-05-21T09:06:14.728Z,31.15
2018-05-21T09:08:43.145Z,31.25
2018-05-21T09:11:11.536Z,31.08
2018-05-21T09:13:40.040Z,30.28
2018-05-21T09:16:08.424Z,31.45
2018-05-21T09:18:37.003Z,32.10
2018-05-21T09:21:05.635Z,32.09
2018-05-21T09:23:34.040Z,31.90
2018-05-21T09:26:02.464Z,32.21
2018-05-21T09:28:30.820Z,34.13
2018-05-21T09:30:59.199Z,33.66
2018-05-21T09:33:27.668Z,33.64
2018-05-21T09:35:56.025Z,32.73
2018-05-21T09:38:24.439Z,32.28
2018-05-21T09:40:53.044Z,31.67
2018-05-21T09:43:21.434Z,32.39
2018-05-21T09:45:50.158Z,32.84
2018-05-21T09:48:18.562Z,33.16
2018-05-21T09:50:46.935Z,32.71
2018-05-21T09:53:15.600Z,32.74
2018-05-21T09:55:43.996Z,31.87
2018-05-21T09:58:12.606Z,31.77
2018-05-21T10:00:41.116Z,33.66
2018-05-21T10:03:09.942Z,34.05
2018-05-21T10:05:38.299Z,33.84
2018-05-21T10:08:06.683Z,33.58
2018-05-21T10:10:35.092Z,33.08
2018-05-21T10:13:03.492Z,32.56
2018-05-21T10:15:31.876Z,32.72
2018-05-21T10:18:00.260Z,32.81
2018-05-21T10:20:28.659Z,31.59
2018-05-21T10:22:57.035Z,31.30
2018-05-21T10:25:25.513Z,30.46
2018-05-21T10:27:53.888Z,30.66
2018-05-21T10:30:22.705Z,31.35
2018-05-21T10:32:51.587Z,33.12
2018-05-21T10:35:19.994Z,33.38
2018-05-21T10:37:49.405Z,33.98
2018-05-21T10:40:17.796Z,32.07
2018-05-21T10:42:46.185Z,32.40
2018-05-21T10:45:14.588Z,34.07
2018-05-21T10:47:42.967Z,32.89
2018-05-21T10:50:11.374Z,33.72
2018-05-21T10:52:39.743Z,35.19
2018-05-21T10:55:08.143Z,33.40
2018-05-21T10:57:36.553Z,32.30
2018-05-21T11:00:04.947Z,34.38
2018-05-21T11:02:33.319Z,34.93
2018-05-21T11:05:01.933Z,33.39
2018-05-21T11:07:30.834Z,32.64
2018-05-21T11:09:59.235Z,32.39
2018-05-21T11:12:27.919Z,32.40
2018-05-21T11:14:56.664Z,32.43
2018-05-21T11:17:25.037Z,33.35
2018-05-21T11:19:53.431Z,32.23
2018-05-21T11:22:22.115Z,35.40
2018-05-21T11:24:50.516Z,36.16
2018-05-21T11:27:18.899Z,37.28
2018-05-21T11:29:47.295Z,38.10
2018-05-21T11:32:15.673Z,35.71
2018-05-21T11:34:44.083Z,34.02
2018-05-21T11:37:12.487Z,35.00
2018-05-21T11:39:40.899Z,33.74
2018-05-21T11:42:09.283Z,34.01
2018-05-21T11:44:37.940Z,32.78
2018-05-21T11:47:06.326Z,33.23
2018-05-21T11:49:34.719Z,33.03
2018-05-21T11:52:03.363Z,32.27
2018-05-21T11:54:32.141Z,30.93
2018-05-21T11:57:00.851Z,31.02
2018-05-21T11:59:29.251Z,33.06
2018-05-21T12:01:57.670Z,31.78
2018-05-21T12:04:26.040Z,32.23
2018-05-21T12:06:54.417Z,32.01
2018-05-21T12:09:22.820Z,31.04
2018-05-21T12:11:51.199Z,30.61
2018-05-21T12:14:19.722Z,29.61
2018-05-21T12:16:48.127Z,30.56
2018-05-21T12:19:17.340Z,31.21
2018-05-21T12:21:46.053Z,32.20
2018-05-21T12:24:14.446Z,31.65
2018-05-21T12:26:42.818Z,30.25
2018-05-21T12:29:11.216Z,30.65
2018-05-21T12:31:39.995Z,30.31
2018-05-21T12:34:08.386Z,28.53
2018-05-21T12:36:36.771Z,29.31
2018-05-21T12:39:06.085Z,29.60
2018-05-21T12:41:34.531Z,29.72
2018-05-21T12:44:03.683Z,31.31
2018-05-21T12:46:32.378Z,31.55
2018-05-21T12:49:01.031Z,30.28
2018-05-21T12:51:29.398Z,30.93
2018-05-21T12:53:57.914Z,30.33
2018-05-21T12:56:26.296Z,31.31
2018-05-21T12:58:54.692Z,31.11
2018-05-21T13:01:23.399Z,31.88
2018-05-21T13:03:51.784Z,32.89
2018-05-21T13:06:20.179Z,34.68
2018-05-21T13:08:48.803Z,34.56
2018-05-21T13:11:17.508Z,31.38
2018-05-21T13:13:46.219Z,29.14
2018-05-21T13:16:14.615Z,28.87
2018-05-21T13:18:42.993Z,29.89
2018-05-21T13:21:11.651Z,30.86
2018-05-21T13:23:40.036Z,30.89
2018-05-21T13:26:08.843Z,30.38
2018-05-21T13:28:37.723Z,30.36
2018-05-21T13:31:06.114Z,31.36
2018-05-21T13:33:34.494Z,32.36
2018-05-21T13:36:03.891Z,31.16
2018-05-21T13:38:32.280Z,29.65
2018-05-21T13:41:00.672Z,30.57
2018-05-21T13:43:29.052Z,32.36
2018-05-21T13:45:57.443Z,32.63
2018-05-21T13:48:25.939Z,31.11
2018-05-21T13:50:54.568Z,29.47
2018-05-21T13:53:22.950Z,30.63
2018-05-21T13:55:51.352Z,31.81
2018-05-21T13:58:20.612Z,32.76
2018-05-21T14:00:49.555Z,32.88
2018-05-21T14:03:17.932Z,30.82
2018-05-21T14:05:46.341Z,30.95
2018-05-21T14:08:14.711Z,29.74
2018-05-21T14:10:43.111Z,29.33
2018-05-21T14:13:11.891Z,29.95
2018-05-21T14:15:40.287Z,29.21
2018-05-21T14:18:08.666Z,29.33
2018-05-21T14:20:37.073Z,29.48
2018-05-21T14:23:05.435Z,29.21
2018-05-21T14:25:33.831Z,29.66
2018-05-21T14:28:02.203Z,29.86
2018-05-21T14:30:30.596Z,29.11
2018-05-21T14:32:58.980Z,29.16
2018-05-21T14:35:27.391Z,28.63
2018-05-21T14:37:56.079Z,29.00
2018-05-21T14:40:24.991Z,28.79
2018-05-21T14:42:53.583Z,28.76
2018-05-21T14:45:22.316Z,28.58
2018-05-21T14:47:50.695Z,28.60
2018-05-21T14:50:19.086Z,27.48
2018-05-21T14:52:47.472Z,28.09
2018-05-21T14:55:15.866Z,27.57
2018-05-21T14:57:44.243Z,27.42
2018-05-21T15:00:12.639Z,27.43
2018-05-21T15:02:41.021Z,27.58
2018-05-21T15:05:10.053Z,26.98
2018-05-21T15:07:38.432Z,27.24
2018-05-21T15:10:06.827Z,26.72
2018-05-21T15:12:35.207Z,26.98
2018-05-21T15:15:03.607Z,27.05
2018-05-21T15:17:32.075Z,26.97
2018-05-21T15:20:00.391Z,26.47
2018-05-21T15:22:28.871Z,25.72
2018-05-21T15:24:57.438Z,26.53
2018-05-21T15:27:25.809Z,26.70
2018-05-21T15:29:54.211Z,26.07
2018-05-21T15:32:22.860Z,26.03
2018-05-21T15:34:51.264Z,25.81
2018-05-21T15:37:19.643Z,26.23
2018-05-21T15:39:48.034Z,26.11
2018-05-21T15:42:16.406Z,26.45
2018-05-21T15:44:44.819Z,25.92
2018-05-21T15:47:13.251Z,25.74
2018-05-21T15:49:41.643Z,26.22
2018-05-21T15:52:10.139Z,26.44
2018-05-21T15:54:38.931Z,25.15
2018-05-21T15:57:07.307Z,25.48
2018-05-21T15:59:35.693Z,25.35
2018-05-21T16:02:04.115Z,26.02
2018-05-21T16:04:33.163Z,25.33
2018-05-21T16:07:01.562Z,25.36
2018-05-21T16:09:29.935Z,25.31
2018-05-21T16:11:58.558Z,25.37
2018-05-21T16:14:27.371Z,25.85
2018-05-21T16:16:55.764Z,25.31
2018-05-21T16:19:24.152Z,25.77
2018-05-21T16:21:52.548Z,25.32
2018-05-21T16:24:20.922Z,24.58
2018-05-21T16:26:49.728Z,24.94
2018-05-21T16:29:18.450Z,24.82
2018-05-21T16:31:46.852Z,24.89
2018-05-21T16:34:15.223Z,24.87
2018-05-21T16:36:43.863Z,24.62
2018-05-21T16:39:12.252Z,24.67
2018-05-21T16:41:40.651Z,24.85
2018-05-21T16:44:09.737Z,25.10
2018-05-21T16:46:38.128Z,24.43
2018-05-21T16:49:06.508Z,24.61
2018-05-21T16:51:34.913Z,24.55
2018-05-21T16:54:03.293Z,24.68
2018-05-21T16:56:31.697Z,24.21
2018-05-21T16:59:00.062Z,24.13
2018-05-21T17:01:28.693Z,24.34
2018-05-21T17:03:57.067Z,24.65
2018-05-21T17:06:25.459Z,23.96
2018-05-21T17:08:53.872Z,23.55
2018-05-21T17:11:22.263Z,23.87
2018-05-21T17:13:50.700Z,23.77
2018-05-21T17:16:19.107Z,23.56
2018-05-21T17:18:47.480Z,23.37
2018-05-21T17:21:15.880Z,23.12
2018-05-21T17:23:44.539Z,22.96
2018-05-21T17:26:13.048Z,22.91
2018-05-21T17:28:41.429Z,22.66
2018-05-21T17:31:09.827Z,22.60
2018-05-21T17:33:38.198Z,22.59
2018-05-21T17:36:06.592Z,22.40
2018-05-21T17:38:34.963Z,22.31
2018-05-21T17:41:03.355Z,22.19
2018-05-21T17:43:31.741Z,22.16
2018-05-21T17:46:00.140Z,21.63
2018-05-21T17:48:28.523Z,21.44
2018-05-21T17:50:56.927Z,21.26
2018-05-21T17:53:25.315Z,21.15
2018-05-21T17:55:53.707Z,21.13
2018-05-21T17:58:22.090Z,20.94
2018-05-21T18:00:50.611Z,20.62
2018-05-21T18:03:19.307Z,20.57
2018-05-21T18:05:47.626Z,20.37
2018-05-21T18:08:16.017Z,20.14
2018-05-21T18:10:44.539Z,20.02
2018-05-21T18:13:12.915Z,19.97
2018-05-21T18:15:41.312Z,19.95
2018-05-21T18:18:09.700Z,19.87
2018-05-21T18:20:38.087Z,19.63
2018-05-21T18:23:06.451Z,19.57
2018-05-21T18:25:34.851Z,19.24
2018-05-21T18:28:03.543Z,19.09
2018-05-21T18:30:31.984Z,19.11
2018-05-21T18:33:00.369Z,19.11
2018-05-21T18:35:28.771Z,18.86
2018-05-21T18:37:57.464Z,18.91
2018-05-21T18:40:25.863Z,18.89
2018-05-21T18:42:54.244Z,18.80
2018-05-21T18:45:22.868Z,18.71
2018-05-21T18:47:51.655Z,18.53
2018-05-21T18:50:20.379Z,18.49
2018-05-21T18:52:49.191Z,18.40
2018-05-21T18:55:17.584Z,18.14
2018-05-21T18:57:45.964Z,18.09
2018-05-21T19:00:14.356Z,18.03
2018-05-21T19:02:43.365Z,17.91
2018-05-21T19:05:11.739Z,17.76
2018-05-21T19:07:40.139Z,17.54
2018-05-21T19:10:08.524Z,17.36
2018-05-21T19:12:37.242Z,17.36
2018-05-21T19:15:05.740Z,17.26
2018-05-21T19:17:34.132Z,17.16
2018-05-21T19:20:02.631Z,16.96
2018-05-21T19:22:31.183Z,16.85
2018-05-21T19:24:59.582Z,16.80
2018-05-21T19:27:27.974Z,16.73
2018-05-21T19:29:56.560Z,16.59
2018-05-21T19:32:24.961Z,16.62
2018-05-21T19:34:53.341Z,16.42
2018-05-21T19:37:21.744Z,16.35
2018-05-21T19:39:50.124Z,16.44
2018-05-21T19:42:18.520Z,16.37
2018-05-21T19:44:46.886Z,16.19
2018-05-21T19:47:15.281Z,16.08
2018-05-21T19:49:43.651Z,16.08
2018-05-21T19:52:12.048Z,15.81
2018-05-21T19:54:40.429Z,15.76
2018-05-21T19:57:08.827Z,15.78
2018-05-21T19:59:37.332Z,15.55
2018-05-21T20:02:08.864Z,15.53
2018-05-21T20:04:37.243Z,15.60
2018-05-21T20:07:05.627Z,15.53
2018-05-21T20:09:34.250Z,15.50
2018-05-21T20:12:02.867Z,15.43
2018-05-21T20:14:31.256Z,15.38
2018-05-21T20:16:59.623Z,15.43
2018-05-21T20:19:28.322Z,15.50
2018-05-21T20:21:56.778Z,15.61
2018-05-21T20:24:25.171Z,15.55
2018-05-21T20:26:53.654Z,15.53
2018-05-21T20:29:22.464Z,15.46
2018-05-21T20:31:50.848Z,15.40
2018-05-21T20:34:20.035Z,15.26
2018-05-21T20:36:48.424Z,15.18
2018-05-21T20:39:16.829Z,15.05
2018-05-21T20:41:45.219Z,14.93
2018-05-21T20:44:13.616Z,14.91
2018-05-21T20:46:41.995Z,14.86
2018-05-21T20:49:10.819Z,14.82
2018-05-21T20:51:39.202Z,14.77
2018-05-21T20:54:07.604Z,14.76
2018-05-21T20:56:35.992Z,14.71
2018-05-21T20:59:04.399Z,14.58
2018-05-21T21:01:32.778Z,14.52
2018-05-21T21:04:01.182Z,14.55
2018-05-21T21:06:29.564Z,14.52
2018-05-21T21:08:57.964Z,14.63
2018-05-21T21:11:26.339Z,14.62
2018-05-21T21:13:54.747Z,14.58
2018-05-21T21:16:23.252Z,14.71
2018-05-21T21:18:51.633Z,14.63
2018-05-21T21:21:20.031Z,14.65
2018-05-21T21:23:48.403Z,14.65
2018-05-21T21:26:16.808Z,14.64
2018-05-21T21:28:45.616Z,14.47
2018-05-21T21:31:14.019Z,14.50
2018-05-21T21:33:42.406Z,14.60
2018-05-21T21:36:10.802Z,14.71
2018-05-21T21:38:39.195Z,14.79
2018-05-21T21:41:07.600Z,14.89
2018-05-21T21:43:35.979Z,14.80
2018-05-21T21:46:04.611Z,14.84
2018-05-21T21:48:32.996Z,14.83
2018-05-21T21:51:01.403Z,14.95
2018-05-21T21:53:30.099Z,14.96
2018-05-21T21:55:59.107Z,14.92
2018-05-21T21:58:27.570Z,15.10
2018-05-21T22:00:56.071Z,15.13
2018-05-21T22:03:24.455Z,15.12
2018-05-21T22:05:52.887Z,15.06
2018-05-21T22:08:21.266Z,15.15
2018-05-21T22:10:49.703Z,15.02
2018-05-21T22:13:18.083Z,15.03
2018-05-21T22:15:46.475Z,14.93
2018-05-21T22:18:14.874Z,15.05
2018-05-21T22:20:43.280Z,15.04
2018-05-21T22:23:11.680Z,14.89
2018-05-21T22:25:40.058Z,14.91
2018-05-21T22:28:08.471Z,14.98
2018-05-21T22:30:36.856Z,14.93
2018-05-21T22:33:05.254Z,14.89
2018-05-21T22:35:33.646Z,14.80
2018-05-21T22:38:02.740Z,14.87
2018-05-21T22:40:31.224Z,14.78
2018-05-21T22:42:59.633Z,14.83
2018-05-21T22:45:27.994Z,14.82
2018-05-21T22:47:56.718Z,14.69
2018-05-21T22:50:25.103Z,14.76
2018-05-21T22:52:53.519Z,14.67
2018-05-21T22:55:22.134Z,14.73
2018-05-21T22:57:50.538Z,14.77
2018-05-21T23:00:18.919Z,14.65
2018-05-21T23:02:47.871Z,14.51
2018-05-21T23:05:16.247Z,14.35
2018-05-21T23:07:45.024Z,14.33
2018-05-21T23:10:13.416Z,14.26
2018-05-21T23:12:41.828Z,14.30
2018-05-21T23:15:10.214Z,14.42
2018-05-21T23:17:38.603Z,14.36
2018-05-21T23:20:06.992Z,14.39
2018-05-21T23:22:44.845Z,14.28
2018-05-21T23:25:13.227Z,14.30
2018-05-21T23:27:41.627Z,14.10
2018-05-21T23:30:09.999Z,14.01
2018-05-21T23:32:38.868Z,13.93
2018-05-21T23:35:07.276Z,13.86
2018-05-21T23:37:35.651Z,13.84
2018-05-21T23:40:04.062Z,13.84
2018-05-21T23:42:32.452Z,13.90
2018-05-21T23:45:00.851Z,13.87
2018-05-21T23:47:29.231Z,13.84
2018-05-21T23:49:58.054Z,13.85
2018-05-21T23:52:26.446Z,13.88
2018-05-21T23:54:54.847Z,13.85
2018-05-21T23:57:23.685Z,13.76
2018-05-21T23:59:52.383Z,13.83
